createdAt,value
2018-07-03T00:02:27.267Z,51.70
2018-07-03T00:04:56.481Z,52.10
2018-07-03T00:07:25.688Z,52.60
2018-07-03T00:09:54.979Z,53.10
2018-07-03T00:12:24.302Z,53.30
2018-07-03T00:14:53.587Z,53.40
2018-07-03T00:17:22.839Z,53.30
2018-07-03T00:19:52.772Z,53.10
2018-07-03T00:22:22.640Z,53.40
2018-07-03T00:24:51.855Z,53.70
2018-07-03T00:27:21.043Z,53.60
2018-07-03T00:29:50.278Z,53.50
2018-07-03T00:32:19.546Z,53.20
2018-07-03T00:34:48.751Z,53.30
2018-07-03T00:37:17.986Z,53.50
2018-07-03T00:39:47.121Z,53.60
2018-07-03T00:42:16.279Z,53.60
2018-07-03T00:44:45.394Z,53.50
2018-07-03T00:47:14.519Z,53.60
2018-07-03T00:49:43.732Z,53.50
2018-07-03T00:52:12.927Z,53.30
2018-07-03T00:54:42.107Z,53.20
2018-07-03T00:57:11.308Z,53.20
2018-07-03T00:59:51.455Z,53.30
2018-07-03T01:02:20.760Z,53.50
2018-07-03T01:04:50.080Z,53.70
2018-07-03T01:07:19.263Z,53.90
2018-07-03T01:09:48.907Z,54.00
2018-07-03T01:12:18.168Z,54.10
2018-07-03T01:14:47.362Z,54.30
2018-07-03T01:17:16.625Z,54.30
2018-07-03T01:19:45.871Z,54.10
2018-07-03T01:22:15.639Z,54.00
2018-07-03T01:24:44.823Z,54.10
2018-07-03T01:27:14.484Z,54.10
2018-07-03T01:29:43.627Z,54.30
2018-07-03T01:32:12.770Z,54.50
2018-07-03T01:34:42.003Z,54.70
2018-07-03T01:37:11.118Z,54.60
2018-07-03T01:39:40.393Z,54.40
2018-07-03T01:42:09.534Z,54.40
2018-07-03T01:44:38.823Z,54.40
2018-07-03T01:47:08.103Z,54.50
2018-07-03T01:49:37.418Z,54.70
2018-07-03T01:52:06.860Z,54.70
2018-07-03T01:54:36.034Z,54.90
2018-07-03T01:57:05.203Z,55.10
2018-07-03T01:59:34.399Z,55.20
2018-07-03T02:02:03.705Z,55.20
2018-07-03T02:04:32.883Z,55.40
2018-07-03T02:07:02.532Z,55.50
2018-07-03T02:09:31.874Z,55.80
2018-07-03T02:12:01.017Z,56.10
2018-07-03T02:14:30.255Z,56.50
2018-07-03T02:16:59.414Z,56.50
2018-07-03T02:19:28.566Z,56.50
2018-07-03T02:21:57.670Z,56.50
2018-07-03T02:24:26.847Z,56.80
2018-07-03T02:26:56.051Z,56.80
2018-07-03T02:29:25.289Z,57.00
2018-07-03T02:31:54.460Z,57.10
2018-07-03T02:34:23.615Z,57.20
2018-07-03T02:36:52.859Z,57.30
2018-07-03T02:39:22.039Z,57.50
2018-07-03T02:41:51.204Z,57.70
2018-07-03T02:44:20.389Z,57.80
2018-07-03T02:46:49.644Z,58.00
2018-07-03T02:49:18.903Z,58.20
2018-07-03T02:51:48.087Z,58.40
2018-07-03T02:54:17.199Z,58.80
2018-07-03T02:56:46.387Z,59.20
2018-07-03T02:59:15.614Z,59.40
2018-07-03T03:01:44.800Z,60.10
2018-07-03T03:04:14.051Z,59.40
2018-07-03T03:06:43.263Z,59.40
2018-07-03T03:09:13.184Z,59.70
2018-07-03T03:11:42.431Z,59.70
2018-07-03T03:14:11.630Z,59.80
2018-07-03T03:16:40.746Z,59.70
2018-07-03T03:19:09.989Z,59.90
2018-07-03T03:21:39.189Z,60.00
2018-07-03T03:24:08.376Z,60.20
2018-07-03T03:26:37.835Z,60.40
2018-07-03T03:29:07.381Z,60.60
2018-07-03T03:31:37.855Z,60.40
2018-07-03T03:34:07.079Z,60.40
2018-07-03T03:36:36.314Z,60.60
2018-07-03T03:39:07.537Z,60.90
2018-07-03T03:41:37.801Z,61.20
2018-07-03T03:44:07.236Z,61.40
2018-07-03T03:46:36.507Z,61.40
2018-07-03T03:49:05.799Z,61.90
2018-07-03T03:51:35.027Z,62.00
2018-07-03T03:54:04.432Z,62.20
2018-07-03T03:56:34.008Z,62.60
2018-07-03T03:59:03.220Z,62.70
2018-07-03T04:01:32.463Z,62.60
2018-07-03T04:04:01.535Z,62.60
2018-07-03T04:06:31.155Z,62.60
2018-07-03T04:09:00.626Z,62.70
2018-07-03T04:11:31.860Z,62.90
2018-07-03T04:14:01.023Z,63.00
2018-07-03T04:16:30.243Z,64.00
2018-07-03T04:18:59.479Z,63.40
2018-07-03T04:21:28.674Z,63.60
2018-07-03T04:23:57.871Z,63.90
2018-07-03T04:26:27.046Z,64.40
2018-07-03T04:28:56.158Z,64.50
2018-07-03T04:31:25.323Z,64.50
2018-07-03T04:33:54.460Z,64.50
2018-07-03T04:36:23.672Z,65.10
2018-07-03T04:38:52.957Z,65.20
2018-07-03T04:41:22.099Z,65.30
2018-07-03T04:43:51.429Z,65.10
2018-07-03T04:46:20.659Z,65.30
2018-07-03T04:48:50.036Z,65.30
2018-07-03T04:51:19.331Z,65.40
2018-07-03T04:53:48.534Z,65.80
2018-07-03T04:56:17.760Z,66.00
2018-07-03T04:58:46.933Z,66.10
2018-07-03T05:01:16.187Z,66.50
2018-07-03T05:03:45.430Z,66.70
2018-07-03T05:06:14.583Z,66.90
2018-07-03T05:08:43.704Z,66.90
2018-07-03T05:11:12.959Z,66.90
2018-07-03T05:13:42.157Z,66.90
2018-07-03T05:16:11.539Z,66.80
2018-07-03T05:18:40.723Z,66.70
2018-07-03T05:21:09.827Z,66.50
2018-07-03T05:23:39.147Z,65.90
2018-07-03T05:26:08.375Z,65.30
2018-07-03T05:28:37.575Z,64.60
2018-07-03T05:31:07.090Z,64.10
2018-07-03T05:33:36.320Z,63.80
2018-07-03T05:36:05.583Z,63.40
2018-07-03T05:38:34.863Z,63.10
2018-07-03T05:41:04.135Z,62.80
2018-07-03T05:43:33.347Z,62.30
2018-07-03T05:46:02.796Z,61.70
2018-07-03T05:48:32.012Z,61.20
2018-07-03T05:51:01.269Z,60.00
2018-07-03T05:53:30.506Z,59.80
2018-07-03T05:55:59.641Z,59.30
2018-07-03T05:58:28.816Z,58.60
2018-07-03T06:00:58.071Z,58.10
2018-07-03T06:03:27.341Z,57.50
2018-07-03T06:05:56.565Z,57.10
2018-07-03T06:08:25.751Z,56.80
2018-07-03T06:10:55.326Z,56.40
2018-07-03T06:13:24.565Z,56.30
2018-07-03T06:15:53.756Z,56.10
2018-07-03T06:18:22.932Z,55.70
2018-07-03T06:20:52.208Z,55.40
2018-07-03T06:23:21.460Z,54.90
2018-07-03T06:25:50.667Z,54.40
2018-07-03T06:28:19.878Z,53.30
2018-07-03T06:30:49.108Z,53.00
2018-07-03T06:33:18.336Z,52.50
2018-07-03T06:35:47.561Z,52.10
2018-07-03T06:38:16.717Z,51.80
2018-07-03T06:40:45.879Z,51.20
2018-07-03T06:43:15.035Z,50.70
2018-07-03T06:45:44.253Z,50.30
2018-07-03T06:48:13.496Z,50.10
2018-07-03T06:50:42.754Z,50.00
2018-07-03T06:53:11.934Z,49.80
2018-07-03T06:55:41.223Z,49.60
2018-07-03T06:58:10.483Z,49.40
2018-07-03T07:00:39.714Z,49.20
2018-07-03T07:03:08.911Z,48.90
2018-07-03T07:05:38.194Z,48.90
2018-07-03T07:08:07.399Z,48.80
2018-07-03T07:10:36.543Z,48.50
2018-07-03T07:13:05.876Z,48.30
2018-07-03T07:15:35.284Z,47.90
2018-07-03T07:18:04.576Z,47.50
2018-07-03T07:20:33.966Z,47.20
2018-07-03T07:23:03.291Z,46.90
2018-07-03T07:25:32.514Z,46.80
2018-07-03T07:28:01.820Z,46.60
2018-07-03T07:30:31.391Z,46.60
2018-07-03T07:33:00.659Z,46.50
2018-07-03T07:35:29.912Z,46.10
2018-07-03T07:37:59.125Z,45.90
2018-07-03T07:40:28.308Z,46.20
2018-07-03T07:42:57.585Z,45.60
2018-07-03T07:45:26.923Z,45.30
2018-07-03T07:47:56.163Z,45.10
2018-07-03T07:50:25.395Z,45.00
2018-07-03T07:52:54.633Z,44.80
2018-07-03T07:55:23.887Z,44.50
2018-07-03T07:57:53.219Z,44.10
2018-07-03T08:00:23.030Z,43.80
2018-07-03T08:02:52.239Z,43.50
2018-07-03T08:05:21.512Z,42.90
2018-07-03T08:07:50.745Z,42.50
2018-07-03T08:10:20.011Z,42.10
2018-07-03T08:12:49.258Z,41.80
2018-07-03T08:15:18.529Z,41.50
2018-07-03T08:17:47.783Z,41.50
2018-07-03T08:20:17.059Z,41.50
2018-07-03T08:22:46.290Z,41.50
2018-07-03T08:25:15.547Z,41.50
2018-07-03T08:27:44.847Z,41.40
2018-07-03T08:30:14.079Z,41.20
2018-07-03T08:32:43.357Z,41.10
2018-07-03T08:35:12.643Z,40.80
2018-07-03T08:37:41.863Z,40.50
2018-07-03T08:40:11.131Z,40.20
2018-07-03T08:42:40.372Z,39.30
2018-07-03T08:45:09.666Z,38.70
2018-07-03T08:47:38.872Z,38.60
2018-07-03T08:50:08.221Z,38.60
2018-07-03T08:52:37.489Z,38.00
2018-07-03T08:55:06.721Z,37.50
2018-07-03T08:57:35.946Z,37.10
2018-07-03T09:00:06.099Z,37.00
2018-07-03T09:02:35.479Z,36.70
2018-07-03T09:05:04.795Z,35.90
2018-07-03T09:07:34.092Z,35.40
2018-07-03T09:10:03.315Z,35.00
2018-07-03T09:12:32.465Z,34.80
2018-07-03T09:15:01.621Z,34.80
2018-07-03T09:17:31.874Z,34.70
2018-07-03T09:20:02.091Z,34.50
2018-07-03T09:22:32.156Z,34.30
2018-07-03T09:25:01.366Z,34.00
2018-07-03T09:27:30.524Z,34.10
2018-07-03T09:29:59.821Z,34.50
2018-07-03T09:32:29.084Z,34.60
2018-07-03T09:34:58.350Z,34.70
2018-07-03T09:37:27.547Z,34.60
2018-07-03T09:39:56.814Z,34.10
2018-07-03T09:42:26.090Z,33.20
2018-07-03T09:44:55.419Z,32.90
2018-07-03T09:47:24.675Z,33.00
2018-07-03T09:49:53.881Z,32.80
2018-07-03T09:52:23.076Z,32.40
2018-07-03T09:54:52.333Z,32.10
2018-07-03T09:57:21.569Z,31.80
2018-07-03T09:59:50.757Z,31.80
2018-07-03T10:02:20.011Z,31.10
2018-07-03T10:04:49.118Z,31.10
2018-07-03T10:07:18.344Z,31.10
2018-07-03T10:09:47.604Z,31.10
2018-07-03T10:12:16.950Z,31.10
2018-07-03T10:14:46.119Z,31.20
2018-07-03T10:17:15.380Z,31.10
2018-07-03T10:19:45.583Z,31.10
2018-07-03T10:22:14.819Z,31.20
2018-07-03T10:24:44.063Z,30.80
2018-07-03T10:29:42.079Z,30.10
2018-07-03T10:32:11.366Z,29.90
2018-07-03T10:34:40.826Z,30.10
2018-07-03T10:37:10.088Z,29.30
2018-07-03T10:39:39.399Z,29.00
2018-07-03T10:42:08.641Z,28.80
2018-07-03T10:44:37.912Z,28.70
2018-07-03T10:47:07.187Z,28.30
2018-07-03T10:49:36.319Z,28.40
2018-07-03T10:52:05.647Z,28.50
2018-07-03T10:54:34.914Z,28.30
2018-07-03T10:57:04.143Z,28.10
2018-07-03T10:59:33.422Z,27.70
2018-07-03T11:02:02.732Z,28.10
2018-07-03T11:04:31.923Z,27.50
2018-07-03T11:07:01.119Z,27.40
2018-07-03T11:09:30.325Z,27.40
2018-07-03T11:11:59.516Z,27.20
2018-07-03T11:14:29.119Z,27.20
2018-07-03T11:16:58.342Z,27.30
2018-07-03T11:19:27.524Z,27.00
2018-07-03T11:21:56.750Z,27.00
2018-07-03T11:24:25.972Z,26.80
2018-07-03T11:26:55.122Z,26.90
2018-07-03T11:29:24.371Z,26.90
2018-07-03T11:31:53.720Z,26.70
2018-07-03T11:34:22.872Z,26.80
2018-07-03T11:36:52.101Z,26.60
2018-07-03T11:39:21.294Z,26.50
2018-07-03T11:41:50.533Z,26.30
2018-07-03T11:44:19.908Z,26.10
2018-07-03T11:46:49.187Z,26.00
2018-07-03T11:49:18.407Z,26.30
2018-07-03T11:51:47.583Z,26.60
2018-07-03T11:54:16.799Z,26.70
2018-07-03T11:56:45.996Z,26.70
2018-07-03T11:59:15.294Z,26.70
2018-07-03T12:01:44.464Z,26.60
2018-07-03T12:04:13.664Z,27.20
2018-07-03T12:06:43.067Z,26.60
2018-07-03T12:09:12.596Z,26.30
2018-07-03T12:11:41.886Z,26.30
2018-07-03T12:14:11.428Z,26.30
2018-07-03T12:16:40.670Z,26.30
2018-07-03T12:19:09.907Z,26.10
2018-07-03T12:21:39.162Z,26.00
2018-07-03T12:24:08.555Z,26.10
2018-07-03T12:26:37.772Z,26.00
2018-07-03T12:29:07.083Z,26.00
2018-07-03T12:31:36.309Z,25.90
2018-07-03T12:34:05.601Z,25.30
2018-07-03T12:36:34.779Z,24.90
2018-07-03T12:39:05.075Z,24.90
2018-07-03T12:41:34.320Z,24.80
2018-07-03T12:44:03.625Z,24.70
2018-07-03T12:46:32.842Z,24.40
2018-07-03T12:49:02.065Z,24.20
2018-07-03T12:51:31.334Z,24.40
2018-07-03T12:54:00.644Z,24.10
2018-07-03T12:56:29.891Z,24.00
2018-07-03T12:58:59.171Z,23.60
2018-07-03T13:01:28.416Z,23.20
2018-07-03T13:03:57.551Z,22.50
2018-07-03T13:06:26.867Z,22.20
2018-07-03T13:08:56.227Z,22.10
2018-07-03T13:11:25.537Z,22.60
2018-07-03T13:13:55.449Z,22.10
2018-07-03T13:16:25.416Z,22.10
2018-07-03T13:18:54.717Z,22.00
2018-07-03T13:21:23.983Z,22.00
2018-07-03T13:23:54.445Z,22.00
2018-07-03T13:26:23.795Z,22.10
2018-07-03T13:28:57.793Z,22.20
2018-07-03T13:31:27.217Z,22.30
2018-07-03T13:33:56.457Z,22.30
2018-07-03T13:36:25.729Z,22.50
2018-07-03T13:38:55.031Z,22.50
2018-07-03T13:41:24.338Z,22.70
2018-07-03T13:43:53.832Z,23.00
2018-07-03T13:46:23.635Z,23.10
2018-07-03T13:48:52.959Z,23.10
2018-07-03T13:51:22.611Z,23.00
2018-07-03T13:53:52.983Z,22.80
2018-07-03T13:56:22.498Z,22.50
2018-07-03T13:58:52.094Z,22.40
2018-07-03T14:01:21.554Z,22.40
2018-07-03T14:03:51.042Z,22.30
2018-07-03T14:06:20.408Z,22.10
2018-07-03T14:08:49.737Z,22.30
2018-07-03T14:11:19.163Z,22.30
2018-07-03T14:16:17.147Z,22.20
2018-07-03T14:18:46.496Z,22.30
2018-07-03T14:21:15.695Z,22.50
2018-07-03T14:23:44.974Z,22.50
2018-07-03T14:26:14.885Z,22.40
2018-07-03T14:28:44.182Z,22.40
2018-07-03T14:31:13.445Z,22.50
2018-07-03T14:33:42.671Z,22.50
2018-07-03T14:36:12.322Z,22.60
2018-07-03T14:38:41.619Z,22.50
2018-07-03T14:41:11.047Z,22.30
2018-07-03T14:43:40.283Z,22.30
2018-07-03T14:46:09.478Z,22.30
2018-07-03T14:48:38.734Z,22.40
2018-07-03T14:51:08.108Z,22.50
2018-07-03T14:53:37.327Z,22.60
2018-07-03T14:56:06.464Z,22.90
2018-07-03T14:58:35.751Z,22.90
2018-07-03T15:01:05.024Z,22.80
2018-07-03T15:03:34.262Z,22.50
2018-07-03T15:06:03.579Z,22.50
2018-07-03T15:08:32.765Z,22.60
2018-07-03T15:11:14.853Z,22.70
2018-07-03T15:13:53.206Z,22.70
2018-07-03T15:16:24.910Z,22.70
2018-07-03T15:18:59.167Z,22.60
2018-07-03T15:21:28.482Z,22.30
2018-07-03T15:23:57.696Z,22.10
2018-07-03T15:26:26.975Z,22.20
2018-07-03T15:28:56.170Z,22.90
2018-07-03T15:31:25.350Z,22.90
2018-07-03T15:33:54.612Z,22.90
2018-07-03T15:36:23.876Z,22.50
2018-07-03T15:38:53.121Z,22.30
2018-07-03T15:41:22.411Z,22.20
2018-07-03T15:44:02.427Z,22.20
2018-07-03T15:46:31.732Z,22.30
2018-07-03T15:49:01.237Z,22.30
2018-07-03T15:51:30.663Z,22.50
2018-07-03T15:54:00.123Z,22.60
2018-07-03T15:56:29.490Z,22.70
2018-07-03T15:58:58.735Z,22.60
2018-07-03T16:01:27.921Z,22.40
2018-07-03T16:04:07.831Z,22.20
2018-07-03T16:07:02.752Z,22.10
2018-07-03T16:09:31.943Z,22.00
2018-07-03T16:12:01.062Z,22.00
2018-07-03T16:14:30.363Z,22.20
2018-07-03T16:17:00.614Z,22.60
2018-07-03T16:19:35.077Z,22.80
2018-07-03T16:22:04.431Z,22.80
2018-07-03T16:24:33.665Z,22.70
2018-07-03T16:27:02.951Z,22.70
2018-07-03T16:29:32.359Z,22.80
2018-07-03T16:32:01.630Z,22.60
2018-07-03T16:34:30.901Z,22.50
2018-07-03T16:37:00.187Z,22.40
2018-07-03T16:39:29.366Z,22.20
2018-07-03T16:41:58.566Z,21.90
2018-07-03T16:44:27.724Z,22.10
2018-07-03T16:46:57.066Z,23.40
2018-07-03T16:49:30.948Z,23.90
2018-07-03T16:52:00.219Z,23.60
2018-07-03T16:54:29.467Z,23.80
2018-07-03T16:56:58.802Z,23.60
2018-07-03T16:59:28.264Z,23.60
2018-07-03T17:01:57.451Z,23.80
2018-07-03T17:04:26.664Z,23.70
2018-07-03T17:06:55.982Z,23.80
2018-07-03T17:09:25.216Z,24.30
2018-07-03T17:11:54.491Z,24.60
2018-07-03T17:14:23.795Z,24.10
2018-07-03T17:16:53.033Z,24.30
2018-07-03T17:19:27.412Z,24.60
2018-07-03T17:21:56.688Z,24.70
2018-07-03T17:24:26.140Z,25.20
2018-07-03T17:26:55.465Z,25.40
2018-07-03T17:29:24.694Z,26.00
2018-07-03T17:31:54.075Z,26.50
2018-07-03T17:34:23.283Z,27.00
2018-07-03T17:36:52.555Z,26.90
2018-07-03T17:39:36.652Z,27.00
2018-07-03T17:42:16.675Z,27.30
2018-07-03T17:45:54.293Z,27.10
2018-07-03T17:48:24.057Z,27.50
2018-07-03T17:50:53.295Z,27.90
2018-07-03T17:53:22.560Z,27.20
2018-07-03T17:55:51.799Z,27.80
2018-07-03T17:58:21.121Z,28.30
2018-07-03T18:03:19.184Z,28.90
2018-07-03T18:05:54.183Z,28.90
2018-07-03T18:08:23.720Z,28.50
2018-07-03T18:10:53.479Z,28.70
2018-07-03T18:13:22.738Z,29.00
2018-07-03T18:15:59.216Z,29.20
2018-07-03T18:18:32.362Z,29.60
2018-07-03T18:23:57.955Z,29.90
2018-07-03T18:26:27.276Z,30.30
2018-07-03T18:28:56.525Z,31.00
2018-07-03T18:31:27.431Z,31.50
2018-07-03T18:33:56.706Z,31.50
2018-07-03T18:36:25.979Z,31.90
2018-07-03T18:38:56.368Z,31.90
2018-07-03T18:41:26.110Z,31.90
2018-07-03T18:43:55.552Z,32.30
2018-07-03T18:46:24.776Z,32.60
2018-07-03T18:48:54.367Z,32.70
2018-07-03T18:51:26.220Z,33.20
2018-07-03T18:53:55.607Z,33.50
2018-07-03T18:56:24.851Z,33.20
2018-07-03T18:58:55.031Z,33.00
2018-07-03T19:01:25.957Z,32.90
2018-07-03T19:03:55.179Z,33.00
2018-07-03T19:06:24.415Z,33.50
2018-07-03T19:08:54.416Z,33.50
2018-07-03T19:11:23.695Z,33.50
2018-07-03T19:14:05.768Z,33.50
2018-07-03T19:16:35.046Z,33.80
2018-07-03T19:19:04.283Z,34.20
2018-07-03T19:21:33.480Z,34.50
2018-07-03T19:24:02.794Z,35.00
2018-07-03T19:26:32.032Z,35.30
2018-07-03T19:31:30.321Z,36.40
2018-07-03T19:33:59.508Z,36.60
2018-07-03T19:36:28.756Z,37.10
2018-07-03T19:38:58.924Z,37.90
2018-07-03T19:41:29.103Z,38.10
2018-07-03T19:43:58.452Z,38.40
2018-07-03T19:46:27.691Z,38.40
2018-07-03T19:48:56.889Z,38.60
2018-07-03T19:51:26.086Z,38.90
2018-07-03T19:53:55.287Z,39.00
2018-07-03T19:56:26.709Z,38.90
2018-07-03T19:58:56.155Z,39.00
2018-07-03T20:01:25.426Z,39.10
2018-07-03T20:03:57.127Z,39.80
2018-07-03T20:06:26.328Z,39.80
2018-07-03T20:08:57.719Z,39.80
2018-07-03T20:11:27.879Z,39.70
2018-07-03T20:13:57.855Z,40.70
2018-07-03T20:19:24.001Z,40.40
2018-07-03T20:21:53.692Z,40.50
2018-07-03T20:24:22.983Z,40.50
2018-07-03T20:26:54.324Z,40.60
2018-07-03T20:29:23.759Z,40.80
2018-07-03T20:31:53.091Z,40.80
2018-07-03T20:34:22.486Z,40.60
2018-07-03T20:36:52.065Z,40.60
2018-07-03T20:39:21.647Z,40.60
2018-07-03T20:41:50.901Z,40.50
2018-07-03T20:44:20.648Z,40.40
2018-07-03T20:46:49.835Z,40.30
2018-07-03T20:49:19.046Z,40.60
2018-07-03T20:51:48.426Z,40.80
2018-07-03T20:54:17.709Z,41.10
2018-07-03T20:56:47.771Z,41.50
2018-07-03T20:59:18.511Z,41.40
2018-07-03T21:01:47.767Z,41.90
2018-07-03T21:04:17.287Z,42.10
2018-07-03T21:06:47.214Z,42.30
2018-07-03T21:09:16.774Z,42.50
2018-07-03T21:11:46.091Z,42.50
2018-07-03T21:14:17.172Z,42.80
2018-07-03T21:16:46.675Z,42.30
2018-07-03T21:19:21.272Z,42.30
2018-07-03T21:21:50.490Z,42.50
2018-07-03T21:24:19.725Z,42.80
2018-07-03T21:29:17.667Z,43.40
2018-07-03T21:31:46.941Z,43.50
2018-07-03T21:34:16.199Z,43.70
2018-07-03T21:36:45.539Z,43.90
2018-07-03T21:39:14.915Z,44.10
2018-07-03T21:41:44.101Z,44.40
2018-07-03T21:44:13.356Z,44.80
2018-07-03T21:46:42.511Z,45.30
2018-07-03T21:49:11.734Z,45.50
2018-07-03T21:51:40.903Z,45.20
2018-07-03T21:54:10.156Z,44.90
2018-07-03T21:56:39.475Z,44.60
2018-07-03T21:59:08.651Z,44.80
2018-07-03T22:01:37.860Z,44.90
2018-07-03T22:04:07.311Z,44.80
2018-07-03T22:06:36.542Z,45.10
2018-07-03T22:09:08.591Z,45.30
2018-07-03T22:11:37.780Z,45.20
2018-07-03T22:14:07.016Z,46.50
2018-07-03T22:16:36.295Z,46.80
2018-07-03T22:19:05.503Z,47.40
2018-07-03T22:21:35.210Z,47.60
2018-07-03T22:24:04.420Z,47.40
2018-07-03T22:26:33.600Z,47.40
2018-07-03T22:29:02.798Z,47.70
2018-07-03T22:31:31.907Z,47.80
2018-07-03T22:34:01.309Z,48.00
2018-07-03T22:36:30.556Z,48.20
2018-07-03T22:38:59.860Z,48.50
2018-07-03T22:41:29.096Z,48.60
2018-07-03T22:43:58.310Z,48.70
2018-07-03T22:46:27.536Z,49.00
2018-07-03T22:48:56.703Z,49.10
2018-07-03T22:53:54.553Z,49.30
2018-07-03T22:56:23.847Z,49.60
2018-07-03T22:58:53.496Z,49.50
2018-07-03T23:01:23.190Z,49.30
2018-07-03T23:03:52.456Z,49.40
2018-07-03T23:06:21.799Z,49.20
2018-07-03T23:08:51.094Z,49.30
2018-07-03T23:11:21.094Z,49.30
2018-07-03T23:13:50.320Z,49.30
2018-07-03T23:16:19.592Z,49.50
2018-07-03T23:18:48.831Z,49.40
2018-07-03T23:21:18.243Z,49.30
2018-07-03T23:23:47.382Z,49.40
2018-07-03T23:26:16.583Z,49.20
2018-07-03T23:28:45.859Z,49.30
2018-07-03T23:31:15.122Z,49.50
2018-07-03T23:33:44.311Z,49.80
2018-07-03T23:36:13.544Z,50.30
2018-07-03T23:38:42.807Z,50.70
2018-07-03T23:41:12.055Z,50.90
2018-07-03T23:43:41.173Z,51.20
2018-07-03T23:46:08.827Z,51.10
2018-07-03T23:48:48.961Z,51.00
2018-07-03T23:51:29.098Z,51.00
2018-07-03T23:54:09.243Z,51.30
2018-07-03T23:56:49.603Z,51.50
2018-07-03T23:59:29.635Z,51.30
